Time;durP1;ratioP1;P1;durP2;ratioP2;P2;SDS_P1;SDS_P2;PMS_P1;PMS_P2;Temp;Humidity;BMP_temperature;BMP_pressure;BME280_temperature;BME280_humidity;BME280_pressure;Samples;Min_cycle;Max_cycle;Signal;HPM_P1;HPM_P2
2022/12/05 00:02:18;;;;;;;;;;;0.20;99.90;;;;;;5058186;28;19912;-74
2022/12/05 00:04:44;;;;;;;;;;;0.10;99.90;;;;;;5058393;28;19913;-74
2022/12/05 00:07:09;;;;;;;;;;;0.10;99.90;;;;;;5076027;28;19916;-74
2022/12/05 00:09:35;;;;;;;;;;;0.10;99.90;;;;;;5076084;28;19920;-74
2022/12/05 00:12:00;;;;;;;;;;;0.10;99.90;;;;;;5058072;28;19912;-74
2022/12/05 00:14:26;;;;;;;;;;;0.00;99.90;;;;;;5076265;28;20007;-75
2022/12/05 00:16:51;;;;;;;;;;;0.00;99.90;;;;;;5057994;28;19917;-75
2022/12/05 00:19:17;;;;;;;;;;;0.00;99.90;;;;;;5075906;28;19920;-74
2022/12/05 00:21:42;;;;;;;;;;;-0.10;99.90;;;;;;5075568;28;19912;-75
2022/12/05 00:24:11;;;;;;;;;;;-0.10;99.90;;;;;;5075927;28;19943;-75
2022/12/05 00:26:36;;;;;;;;;;;-0.10;99.90;;;;;;5075822;28;19909;-74
2022/12/05 00:29:02;;;;;;;;;;;0.00;99.90;;;;;;5075757;28;20350;-74
2022/12/05 00:31:27;;;;;;;;;;;0.00;99.90;;;;;;5075651;28;19934;-75
2022/12/05 00:33:53;;;;;;;;;;;0.00;99.90;;;;;;5075911;28;19915;-74
2022/12/05 00:36:23;;;;;;;;;;;0.00;99.90;;;;;;5075082;28;19919;-74
2022/12/05 00:38:49;;;;;;;;;;;0.00;99.90;;;;;;5075608;28;19936;-74
2022/12/05 00:41:16;;;;;;;;;;;0.00;99.90;;;;;;5075184;28;19964;-74
2022/12/05 00:43:42;;;;;;;;;;;-0.10;99.90;;;;;;5075577;28;19915;-74
2022/12/05 00:46:08;;;;;;;;;;;-0.10;99.90;;;;;;5075534;28;19996;-74
2022/12/05 00:48:34;;;;;;;;;;;-0.10;99.90;;;;;;5075150;28;19909;-74
2022/12/05 00:51:04;;;;;;;;;;;-0.10;99.90;;;;;;5074814;28;19961;-71
2022/12/05 00:53:30;;;;;;;;;;;-0.10;99.90;;;;;;5075332;28;20283;-74
2022/12/05 00:55:55;;;;;;;;;;;-0.20;99.90;;;;;;5075497;28;19913;-74
2022/12/05 00:58:21;;;;;;;;;;;-0.20;99.90;;;;;;5074972;28;20330;-74
2022/12/05 01:00:47;;;;;;;;;;;-0.20;99.90;;;;;;5056953;28;19928;-74
2022/12/05 01:03:12;;;;;;;;;;;-0.30;99.90;;;;;;5074871;28;19944;-74
2022/12/05 01:05:38;;;;;;;;;;;-0.30;99.90;;;;;;5074781;28;19991;-74
2022/12/05 01:08:03;;;;;;;;;;;-0.30;99.90;;;;;;5056647;28;20232;-74
2022/12/05 01:10:29;;;;;;;;;;;-0.30;99.90;;;;;;5074595;28;20358;-74
2022/12/05 01:12:54;;;;;;;;;;;-0.40;99.90;;;;;;5074619;28;19913;-74
2022/12/05 01:15:20;;;;;;;;;;;-0.40;99.90;;;;;;5056818;28;19913;-74
2022/12/05 01:17:45;;;;;;;;;;;-0.40;99.90;;;;;;5074824;28;20023;-74
2022/12/05 01:20:11;;;;;;;;;;;-0.40;99.90;;;;;;5056624;28;19920;-74
2022/12/05 01:22:36;;;;;;;;;;;-0.40;99.90;;;;;;5073278;28;19966;-74
2022/12/05 01:25:03;;;;;;;;;;;-0.40;99.90;;;;;;5074685;28;19920;-74
2022/12/05 01:27:29;;;;;;;;;;;-0.40;99.90;;;;;;5074662;28;19969;-74
2022/12/05 01:29:55;;;;;;;;;;;-0.50;99.90;;;;;;5074634;28;20003;-74
2022/12/05 01:32:20;;;;;;;;;;;-0.40;99.90;;;;;;5074234;28;19912;-74
2022/12/05 01:34:46;;;;;;;;;;;-0.50;99.90;;;;;;5074231;28;19912;-74
2022/12/05 01:37:11;;;;;;;;;;;-0.50;99.90;;;;;;5056039;28;19925;-74
2022/12/05 01:39:37;;;;;;;;;;;-0.50;99.90;;;;;;5056167;28;19959;-74
2022/12/05 01:42:03;;;;;;;;;;;-0.50;99.90;;;;;;5074056;28;19912;-74
2022/12/05 01:44:29;;;;;;;;;;;-0.50;99.90;;;;;;5074345;28;19908;-74
2022/12/05 01:46:54;;;;;;;;;;;-0.40;99.90;;;;;;5074324;28;19915;-74
2022/12/05 01:49:20;;;;;;;;;;;-0.40;99.90;;;;;;5056079;28;19909;-74
2022/12/05 01:51:47;;;;;;;;;;;-0.40;99.90;;;;;;5073716;28;19908;-74
2022/12/05 01:54:13;;;;;;;;;;;-0.40;99.90;;;;;;5074235;28;19913;-74
2022/12/05 01:56:39;;;;;;;;;;;-0.40;99.90;;;;;;5073820;28;19916;-74
2022/12/05 01:59:06;;;;;;;;;;;-0.40;99.90;;;;;;5073724;28;19956;-74
2022/12/05 02:01:32;;;;;;;;;;;-0.50;99.90;;;;;;5055817;28;19909;-74
2022/12/05 02:03:58;;;;;;;;;;;-0.50;99.90;;;;;;5073802;28;19912;-74
2022/12/05 02:06:24;;;;;;;;;;;-0.50;99.90;;;;;;5073571;28;19908;-74
2022/12/05 02:08:51;;;;;;;;;;;-0.60;99.90;;;;;;5074295;28;20284;-74
2022/12/05 02:11:16;;;;;;;;;;;-0.60;99.90;;;;;;5073603;28;19908;-74
2022/12/05 02:13:42;;;;;;;;;;;-0.60;99.90;;;;;;5073985;28;20275;-74
2022/12/05 02:16:15;;;;;;;;;;;-0.60;99.90;;;;;;5073604;28;19951;-74
2022/12/05 02:18:48;;;;;;;;;;;-0.70;99.90;;;;;;5074503;28;19971;-74
2022/12/05 02:21:26;;;;;;;;;;;-0.70;99.90;;;;;;5073594;28;19978;-74
2022/12/05 02:23:56;;;;;;;;;;;-0.70;99.90;;;;;;5073987;28;20233;-74
2022/12/05 02:26:58;;;;;;;;;;;-0.70;99.90;;;;;;5073628;28;20379;-74
2022/12/05 02:29:23;;;;;;;;;;;-0.60;99.90;;;;;;4972857;28;20394;-74
2022/12/05 02:31:58;;;;;;;;;;;-0.60;99.90;;;;;;5052815;28;19916;-74
2022/12/05 02:34:33;;;;;;;;;;;-0.60;99.90;;;;;;5076389;28;19908;-74
2022/12/05 02:37:11;;;;;;;;;;;-0.70;99.90;;;;;;5077367;28;19912;-74
2022/12/05 02:39:44;;;;;;;;;;;-0.70;99.90;;;;;;5078183;28;20007;-74
2022/12/05 02:42:09;;;;;;;;;;;-0.60;99.90;;;;;;5078057;28;20402;-74
2022/12/05 02:44:42;;;;;;;;;;;-0.60;99.90;;;;;;5077585;28;19908;-74
2022/12/05 02:47:08;;;;;;;;;;;-0.60;99.90;;;;;;5059517;28;19912;-74
2022/12/05 02:49:34;;;;;;;;;;;-0.50;99.90;;;;;;5077726;28;19917;-74
2022/12/05 02:52:01;;;;;;;;;;;-0.60;99.90;;;;;;5077329;28;19912;-74
2022/12/05 02:54:30;;;;;;;;;;;-0.60;99.90;;;;;;5077324;28;20280;-74
2022/12/05 02:56:56;;;;;;;;;;;-0.50;99.90;;;;;;5077242;28;19961;-75
2022/12/05 02:59:22;;;;;;;;;;;-0.50;99.90;;;;;;5077242;28;19920;-75
2022/12/05 03:01:48;;;;;;;;;;;-0.50;99.90;;;;;;5077907;28;19919;-74
2022/12/05 03:04:15;;;;;;;;;;;-0.50;99.90;;;;;;5077146;28;19998;-74
2022/12/05 03:06:43;;;;;;;;;;;-0.40;99.90;;;;;;5059033;28;20287;-74
2022/12/05 03:09:11;;;;;;;;;;;-0.40;99.90;;;;;;5077224;28;19908;-74
2022/12/05 03:11:40;;;;;;;;;;;-0.40;99.90;;;;;;5077281;28;19908;-74
2022/12/05 03:14:07;;;;;;;;;;;-0.30;99.90;;;;;;5076957;28;19952;-74
2022/12/05 03:16:35;;;;;;;;;;;-0.30;99.90;;;;;;5058855;28;19912;-74
2022/12/05 03:19:04;;;;;;;;;;;-0.30;99.90;;;;;;5077208;28;19987;-74
2022/12/05 03:21:34;;;;;;;;;;;-0.30;99.90;;;;;;5076760;28;20352;-74
2022/12/05 03:24:08;;;;;;;;;;;-0.30;99.90;;;;;;5076744;28;20024;-74
2022/12/05 03:26:43;;;;;;;;;;;-0.30;99.90;;;;;;5076988;28;19915;-74
2022/12/05 03:29:27;;;;;;;;;;;-0.30;99.90;;;;;;5058785;28;19915;-74
2022/12/05 03:32:05;;;;;;;;;;;-0.30;99.90;;;;;;5076591;28;20000;-75
2022/12/05 03:34:42;;;;;;;;;;;-0.30;99.90;;;;;;5076562;28;19943;-74
2022/12/05 03:37:12;;;;;;;;;;;-0.30;99.90;;;;;;5076491;28;19916;-74
2022/12/05 03:39:40;;;;;;;;;;;-0.30;99.90;;;;;;5076437;28;20284;-75
2022/12/05 03:42:11;;;;;;;;;;;-0.30;99.90;;;;;;5076417;28;20265;-75
2022/12/05 03:45:00;;;;;;;;;;;-0.20;99.90;;;;;;5075991;28;20383;-75
2022/12/05 03:47:36;;;;;;;;;;;-0.20;99.90;;;;;;5062834;28;19920;-75
2022/12/05 03:50:05;;;;;;;;;;;-0.20;99.90;;;;;;5076659;28;19908;-75
2022/12/05 03:52:33;;;;;;;;;;;-0.20;99.90;;;;;;5075952;28;19909;-74
2022/12/05 03:55:01;;;;;;;;;;;-0.10;99.90;;;;;;5076211;28;19936;-75
2022/12/05 03:57:28;;;;;;;;;;;-0.10;99.90;;;;;;5076137;28;20015;-75
2022/12/05 04:00:03;;;;;;;;;;;-0.10;99.90;;;;;;5076042;28;19916;-75
2022/12/05 04:02:48;;;;;;;;;;;-0.10;99.90;;;;;;5076040;28;19966;-75
2022/12/05 04:05:21;;;;;;;;;;;-0.10;99.90;;;;;;5076019;28;19908;-75
2022/12/05 04:07:58;;;;;;;;;;;-0.10;99.90;;;;;;5075817;28;19926;-74
2022/12/05 04:10:27;;;;;;;;;;;-0.10;99.90;;;;;;5075960;28;20008;-75
2022/12/05 04:12:54;;;;;;;;;;;-0.10;99.90;;;;;;5075819;28;19915;-74
2022/12/05 04:15:22;;;;;;;;;;;-0.10;99.90;;;;;;5076142;28;19915;-75
2022/12/05 04:17:58;;;;;;;;;;;-0.10;99.90;;;;;;5057792;28;20299;-75
2022/12/05 04:23:11;;;;;;;;;;;0.00;99.90;;;;;;5075945;28;19915;-75
2022/12/05 04:25:54;;;;;;;;;;;-0.10;99.90;;;;;;5075630;28;20356;-74
2022/12/05 04:28:31;;;;;;;;;;;-0.10;99.90;;;;;;5075653;28;19909;-74
2022/12/05 04:30:59;;;;;;;;;;;0.00;99.90;;;;;;5075796;28;19931;-74
2022/12/05 04:33:25;;;;;;;;;;;-0.10;99.90;;;;;;5057518;28;19909;-74
2022/12/05 04:35:58;;;;;;;;;;;-0.10;99.90;;;;;;5075487;28;19915;-75
2022/12/05 04:38:46;;;;;;;;;;;-0.10;99.90;;;;;;5075150;28;19919;-75
2022/12/05 04:41:19;;;;;;;;;;;-0.10;99.90;;;;;;5044445;28;19909;-74
2022/12/05 04:43:45;;;;;;;;;;;0.00;99.90;;;;;;5055641;28;19948;-75
2022/12/05 04:46:13;;;;;;;;;;;-0.10;99.90;;;;;;5055575;28;20358;-75
2022/12/05 04:48:39;;;;;;;;;;;0.00;99.90;;;;;;5055716;28;19952;-75
2022/12/05 04:51:07;;;;;;;;;;;0.00;99.90;;;;;;5055051;28;19909;-75
2022/12/05 04:53:33;;;;;;;;;;;0.00;99.90;;;;;;5054880;28;20262;-75
2022/12/05 04:56:00;;;;;;;;;;;0.00;99.90;;;;;;5037473;28;19966;-75
2022/12/05 04:58:26;;;;;;;;;;;0.00;99.90;;;;;;5054906;28;19913;-75
2022/12/05 05:00:58;;;;;;;;;;;0.00;99.90;;;;;;5054831;28;19924;-75
2022/12/05 05:03:27;;;;;;;;;;;0.00;99.90;;;;;;5054840;28;20365;-75
2022/12/05 05:05:54;;;;;;;;;;;0.00;99.90;;;;;;5054891;28;19935;-74
2022/12/05 05:08:21;;;;;;;;;;;0.10;99.90;;;;;;5036763;28;20371;-74
2022/12/05 05:10:54;;;;;;;;;;;0.10;99.90;;;;;;5070245;28;19908;-74
2022/12/05 05:13:19;;;;;;;;;;;0.10;99.90;;;;;;5075309;28;19932;-75
2022/12/05 05:15:45;;;;;;;;;;;0.10;99.90;;;;;;5074617;28;19920;-75
2022/12/05 05:18:10;;;;;;;;;;;0.10;99.90;;;;;;5074540;28;19924;-74
2022/12/05 05:20:38;;;;;;;;;;;0.20;99.90;;;;;;5074549;28;19913;-75
2022/12/05 05:23:03;;;;;;;;;;;0.20;99.90;;;;;;5074243;28;20280;-75
2022/12/05 05:25:29;;;;;;;;;;;0.20;99.90;;;;;;5074419;28;19912;-75
2022/12/05 05:27:55;;;;;;;;;;;0.20;99.90;;;;;;5074452;28;20015;-74
2022/12/05 05:30:21;;;;;;;;;;;0.20;99.90;;;;;;5074917;28;19947;-75
2022/12/05 05:32:47;;;;;;;;;;;0.20;99.90;;;;;;5074248;28;19912;-74
2022/12/05 05:35:13;;;;;;;;;;;0.30;99.90;;;;;;5074285;28;19931;-75
2022/12/05 05:37:39;;;;;;;;;;;0.30;99.90;;;;;;5073907;28;19971;-75
2022/12/05 05:40:05;;;;;;;;;;;0.30;99.90;;;;;;5074440;28;19919;-75
2022/12/05 05:42:31;;;;;;;;;;;0.40;99.90;;;;;;5056134;28;19913;-75
2022/12/05 05:44:57;;;;;;;;;;;0.40;99.90;;;;;;5074161;28;19916;-75
2022/12/05 05:47:22;;;;;;;;;;;0.40;99.90;;;;;;5074048;28;19912;-75
2022/12/05 05:49:48;;;;;;;;;;;0.40;99.90;;;;;;5074058;28;20287;-75
2022/12/05 05:52:13;;;;;;;;;;;0.40;99.90;;;;;;5073728;28;19959;-75
2022/12/05 05:54:39;;;;;;;;;;;0.40;99.90;;;;;;5056607;28;19935;-75
2022/12/05 05:57:05;;;;;;;;;;;0.40;99.90;;;;;;5073857;28;19967;-75
2022/12/05 05:59:30;;;;;;;;;;;0.40;99.90;;;;;;5055804;28;20283;-75
2022/12/05 06:01:56;;;;;;;;;;;0.40;99.90;;;;;;5073844;28;19944;-75
2022/12/05 06:04:21;;;;;;;;;;;0.40;99.90;;;;;;5074181;28;19975;-75
2022/12/05 06:06:47;;;;;;;;;;;0.40;99.90;;;;;;5073914;28;19916;-75
2022/12/05 06:09:12;;;;;;;;;;;0.40;99.90;;;;;;5055375;28;19952;-75
2022/12/05 06:11:38;;;;;;;;;;;0.40;99.90;;;;;;5074055;28;19920;-75
2022/12/05 06:14:03;;;;;;;;;;;0.40;99.90;;;;;;5073816;28;19919;-75
2022/12/05 06:16:30;;;;;;;;;;;0.40;99.90;;;;;;5073958;28;19923;-75
2022/12/05 06:18:56;;;;;;;;;;;0.50;99.90;;;;;;5073743;28;19915;-75
2022/12/05 06:21:21;;;;;;;;;;;0.50;99.90;;;;;;5074103;28;19912;-75
2022/12/05 06:23:47;;;;;;;;;;;0.50;99.90;;;;;;5073517;28;19916;-75
2022/12/05 06:26:14;;;;;;;;;;;0.50;99.90;;;;;;5073627;28;19913;-75
2022/12/05 06:28:40;;;;;;;;;;;0.50;99.90;;;;;;5073918;28;19908;-75
2022/12/05 06:31:06;;;;;;;;;;;0.50;99.90;;;;;;5055819;28;19913;-75
2022/12/05 06:33:32;;;;;;;;;;;0.60;99.90;;;;;;5073843;28;19908;-76
2022/12/05 06:36:08;;;;;;;;;;;0.50;99.90;;;;;;5073771;28;20260;-75
2022/12/05 06:38:33;;;;;;;;;;;0.60;99.90;;;;;;5074039;28;19919;-75
2022/12/05 06:40:59;;;;;;;;;;;0.60;99.90;;;;;;5073754;28;19913;-75
2022/12/05 06:43:24;;;;;;;;;;;0.60;99.90;;;;;;5073521;28;20288;-75
2022/12/05 06:45:50;;;;;;;;;;;0.60;99.90;;;;;;5073872;28;19913;-75
2022/12/05 06:48:18;;;;;;;;;;;0.60;99.90;;;;;;5073422;28;19916;-75
2022/12/05 06:50:47;;;;;;;;;;;0.60;99.90;;;;;;5073356;28;20284;-75
2022/12/05 06:53:13;;;;;;;;;;;0.70;99.90;;;;;;5073640;28;19935;-75
2022/12/05 06:55:38;;;;;;;;;;;0.60;99.90;;;;;;5055968;28;19913;-75
2022/12/05 06:58:04;;;;;;;;;;;0.60;99.90;;;;;;5073565;28;19962;-75
2022/12/05 07:03:14;;;;;;;;;;;0.70;99.90;;;;;;5073896;28;20027;-75
2022/12/05 07:05:39;;;;;;;;;;;0.70;99.90;;;;;;5073777;28;19921;-76
2022/12/05 07:08:05;;;;;;;;;;;0.70;99.90;;;;;;5073493;28;19912;-75
2022/12/05 07:10:30;;;;;;;;;;;0.70;99.90;;;;;;5073142;28;19913;-75
2022/12/05 07:12:56;;;;;;;;;;;0.80;99.90;;;;;;5073132;28;19913;-75
2022/12/05 07:15:22;;;;;;;;;;;0.80;99.90;;;;;;5073497;28;19955;-75
2022/12/05 07:17:47;;;;;;;;;;;0.80;99.90;;;;;;5073653;28;19920;-76
2022/12/05 07:20:16;;;;;;;;;;;0.80;99.90;;;;;;5075253;28;20258;-75
2022/12/05 07:22:42;;;;;;;;;;;0.90;99.90;;;;;;5076780;28;19913;-76
2022/12/05 07:25:08;;;;;;;;;;;0.90;99.90;;;;;;5076954;28;19919;-75
2022/12/05 07:27:33;;;;;;;;;;;0.90;99.90;;;;;;5076736;28;19908;-75
2022/12/05 07:29:59;;;;;;;;;;;0.90;99.90;;;;;;5059244;28;19918;-76
2022/12/05 07:32:25;;;;;;;;;;;0.90;99.90;;;;;;5076639;28;19917;-75
2022/12/05 07:34:50;;;;;;;;;;;0.90;99.90;;;;;;5076651;28;19958;-75
2022/12/05 07:37:16;;;;;;;;;;;0.90;99.90;;;;;;5076743;28;20364;-75
2022/12/05 07:39:41;;;;;;;;;;;0.90;99.90;;;;;;5059073;28;20422;-75
2022/12/05 07:42:07;;;;;;;;;;;0.90;99.90;;;;;;5077078;28;19961;-75
2022/12/05 07:44:33;;;;;;;;;;;0.90;99.90;;;;;;5058681;28;19962;-76
2022/12/05 07:47:02;;;;;;;;;;;1.00;99.90;;;;;;5058466;28;20010;-76
2022/12/05 07:49:27;;;;;;;;;;;1.00;99.90;;;;;;5059460;28;19917;-76
2022/12/05 07:51:53;;;;;;;;;;;1.00;99.90;;;;;;5058258;28;19965;-75
2022/12/05 07:54:18;;;;;;;;;;;1.00;99.90;;;;;;5076513;28;19913;-75
2022/12/05 07:56:44;;;;;;;;;;;1.00;99.90;;;;;;5076901;28;19924;-75
2022/12/05 07:59:09;;;;;;;;;;;1.00;99.90;;;;;;5076398;28;20395;-75
2022/12/05 08:01:35;;;;;;;;;;;1.00;99.90;;;;;;5058343;28;19919;-75
2022/12/05 08:04:01;;;;;;;;;;;1.00;99.90;;;;;;5076429;28;19999;-76
2022/12/05 08:06:28;;;;;;;;;;;1.00;99.90;;;;;;5076106;28;20383;-76
2022/12/05 08:08:54;;;;;;;;;;;1.00;99.90;;;;;;5058100;28;19916;-76
2022/12/05 08:11:21;;;;;;;;;;;1.00;99.90;;;;;;5075913;28;20011;-75
2022/12/05 08:13:47;;;;;;;;;;;1.10;99.90;;;;;;5075919;28;19908;-76
2022/12/05 08:16:14;;;;;;;;;;;1.10;99.90;;;;;;5075773;28;19908;-76
2022/12/05 08:18:40;;;;;;;;;;;1.10;99.90;;;;;;5075800;28;19909;-76
2022/12/05 08:21:10;;;;;;;;;;;1.10;99.90;;;;;;5057756;28;19912;-76
2022/12/05 08:23:36;;;;;;;;;;;1.10;99.90;;;;;;5075758;28;19951;-76
2022/12/05 08:26:07;;;;;;;;;;;1.10;99.90;;;;;;5075696;28;20379;-76
2022/12/05 08:28:32;;;;;;;;;;;1.10;99.90;;;;;;5076253;28;19908;-76
2022/12/05 08:31:08;;;;;;;;;;;1.10;99.90;;;;;;5075371;28;19922;-75
2022/12/05 08:33:34;;;;;;;;;;;1.10;99.90;;;;;;5075870;28;19986;-76
2022/12/05 08:36:01;;;;;;;;;;;1.20;99.90;;;;;;5075681;28;19913;-76
2022/12/05 08:38:27;;;;;;;;;;;1.20;99.90;;;;;;5075380;28;19919;-76
2022/12/05 08:40:52;;;;;;;;;;;1.20;99.90;;;;;;5075391;28;19908;-75
2022/12/05 08:43:18;;;;;;;;;;;1.20;99.90;;;;;;5075382;28;19912;-76
2022/12/05 08:45:50;;;;;;;;;;;1.20;99.90;;;;;;5075349;28;19927;-75
2022/12/05 08:48:16;;;;;;;;;;;1.20;99.90;;;;;;5075573;28;19916;-76
2022/12/05 08:50:41;;;;;;;;;;;1.20;99.90;;;;;;5075125;28;19954;-75
2022/12/05 08:53:07;;;;;;;;;;;1.30;99.90;;;;;;5075155;28;19917;-76
2022/12/05 08:55:33;;;;;;;;;;;1.30;99.90;;;;;;5075103;28;19920;-76
2022/12/05 08:57:58;;;;;;;;;;;1.40;99.90;;;;;;5074964;28;19922;-76
2022/12/05 09:00:24;;;;;;;;;;;1.40;99.90;;;;;;5074937;28;20299;-75
2022/12/05 09:02:50;;;;;;;;;;;1.40;99.90;;;;;;5075400;28;20371;-74
2022/12/05 09:05:16;;;;;;;;;;;1.40;99.90;;;;;;5075175;28;19913;-73
2022/12/05 09:07:42;;;;;;;;;;;1.50;99.90;;;;;;5074811;28;20015;-73
2022/12/05 09:10:08;;;;;;;;;;;1.50;99.90;;;;;;5074811;28;19924;-73
2022/12/05 09:12:37;;;;;;;;;;;1.60;99.90;;;;;;5056686;28;19908;-73
2022/12/05 09:15:04;;;;;;;;;;;1.60;99.90;;;;;;5074723;28;19915;-73
2022/12/05 09:17:30;;;;;;;;;;;1.70;99.90;;;;;;5074557;28;19919;-73
2022/12/05 09:19:55;;;;;;;;;;;1.70;99.90;;;;;;5040141;28;19912;-73
2022/12/05 09:22:21;;;;;;;;;;;1.70;99.90;;;;;;5075067;28;19920;-73
2022/12/05 09:24:47;;;;;;;;;;;1.80;99.90;;;;;;5074533;28;19971;-73
2022/12/05 09:27:13;;;;;;;;;;;1.80;99.90;;;;;;5074527;28;20007;-73
2022/12/05 09:29:38;;;;;;;;;;;1.90;99.90;;;;;;5074753;28;19935;-74
2022/12/05 09:32:04;;;;;;;;;;;2.00;99.90;;;;;;5074377;28;19919;-74
2022/12/05 09:34:30;;;;;;;;;;;2.00;99.90;;;;;;5074619;28;19959;-74
2022/12/05 09:36:56;;;;;;;;;;;2.10;99.90;;;;;;5074490;28;20008;-74
2022/12/05 09:39:22;;;;;;;;;;;2.10;99.90;;;;;;5056338;28;19967;-74
2022/12/05 09:44:47;;;;;;;;;;;2.20;99.90;;;;;;5073425;28;19923;-74
2022/12/05 09:47:22;;;;;;;;;;;2.30;99.90;;;;;;5074142;28;19909;-74
2022/12/05 09:49:57;;;;;;;;;;;2.30;99.90;;;;;;5074075;28;19912;-74
2022/12/05 09:52:26;;;;;;;;;;;2.30;99.90;;;;;;5075115;28;20298;-74
2022/12/05 09:54:52;;;;;;;;;;;2.30;99.90;;;;;;5074017;28;19916;-74
2022/12/05 09:57:23;;;;;;;;;;;2.30;99.90;;;;;;5074165;28;20352;-74
2022/12/05 09:59:48;;;;;;;;;;;2.40;99.90;;;;;;5074071;28;19922;-74
2022/12/05 10:02:39;;;;;;;;;;;2.40;99.90;;;;;;5073949;28;19913;-74
2022/12/05 10:05:08;;;;;;;;;;;2.50;99.90;;;;;;5073957;28;20003;-74
2022/12/05 10:07:42;;;;;;;;;;;2.50;99.90;;;;;;5073929;28;19908;-74
2022/12/05 10:10:23;;;;;;;;;;;2.60;99.90;;;;;;5074158;28;19994;-74
2022/12/05 10:12:58;;;;;;;;;;;2.70;99.90;;;;;;5073758;28;19908;-74
2022/12/05 10:15:27;;;;;;;;;;;2.70;99.90;;;;;;5073847;28;20295;-74
2022/12/05 10:17:56;;;;;;;;;;;2.80;99.90;;;;;;5055764;28;20430;-74
2022/12/05 10:20:25;;;;;;;;;;;2.90;99.90;;;;;;5073770;28;19909;-74
2022/12/05 10:23:13;;;;;;;;;;;3.00;99.90;;;;;;5073654;28;20279;-74
2022/12/05 10:25:40;;;;;;;;;;;3.00;99.90;;;;;;5060232;28;19908;-74
2022/12/05 10:28:13;;;;;;;;;;;3.00;99.90;;;;;;5073665;28;19951;-74
2022/12/05 10:30:40;;;;;;;;;;;3.10;99.90;;;;;;5073523;28;19909;-73
2022/12/05 10:33:19;;;;;;;;;;;3.10;99.90;;;;;;5073665;28;19909;-73
2022/12/05 10:35:45;;;;;;;;;;;3.10;99.90;;;;;;5055625;28;19909;-73
2022/12/05 10:38:30;;;;;;;;;;;3.10;99.90;;;;;;5055502;28;20003;-73
2022/12/05 10:41:02;;;;;;;;;;;3.10;99.90;;;;;;5073484;28;20368;-72
2022/12/05 10:43:29;;;;;;;;;;;3.10;99.90;;;;;;5073489;28;20088;-72
2022/12/05 10:45:55;;;;;;;;;;;3.20;99.90;;;;;;5073610;28;19943;-72
2022/12/05 10:48:21;;;;;;;;;;;3.20;99.90;;;;;;5073753;28;19913;-72
2022/12/05 10:50:51;;;;;;;;;;;3.20;99.90;;;;;;5073997;28;19915;-71
2022/12/05 10:53:22;;;;;;;;;;;3.30;99.90;;;;;;5073416;28;19915;-71
2022/12/05 10:55:50;;;;;;;;;;;3.30;99.90;;;;;;5076294;28;19919;-72
2022/12/05 10:58:20;;;;;;;;;;;3.30;99.90;;;;;;5077567;28;19919;-71
2022/12/05 11:00:47;;;;;;;;;;;3.40;99.90;;;;;;5077165;28;20426;-71
2022/12/05 11:03:27;;;;;;;;;;;3.40;99.90;;;;;;5077816;28;19958;-71
2022/12/05 11:05:54;;;;;;;;;;;3.40;99.90;;;;;;5077222;28;19943;-71
2022/12/05 11:08:30;;;;;;;;;;;3.50;99.90;;;;;;5077164;28;19908;-71
2022/12/05 11:11:18;;;;;;;;;;;3.60;99.90;;;;;;5077005;28;19916;-71
2022/12/05 11:13:54;;;;;;;;;;;3.60;99.90;;;;;;5046289;28;20061;-71
2022/12/05 11:16:23;;;;;;;;;;;3.70;99.90;;;;;;5077234;28;19935;-71
2022/12/05 11:18:49;;;;;;;;;;;3.80;99.90;;;;;;5077306;28;19995;-72
2022/12/05 11:21:18;;;;;;;;;;;3.90;99.90;;;;;;5058972;28;20049;-71
2022/12/05 11:23:43;;;;;;;;;;;4.10;99.90;;;;;;5059639;28;19916;-71
2022/12/05 11:26:17;;;;;;;;;;;4.20;99.90;;;;;;5077760;28;20347;-71
2022/12/05 11:28:45;;;;;;;;;;;4.20;99.90;;;;;;5077560;28;19908;-71
2022/12/05 11:31:10;;;;;;;;;;;4.20;99.90;;;;;;5077376;28;19919;-72
2022/12/05 11:33:36;;;;;;;;;;;4.20;99.90;;;;;;5059466;28;20368;-70
2022/12/05 11:36:05;;;;;;;;;;;4.30;99.90;;;;;;5077092;28;19909;-71
2022/12/05 11:38:33;;;;;;;;;;;4.30;99.90;;;;;;5076762;28;19952;-71
2022/12/05 11:41:25;;;;;;;;;;;4.40;99.90;;;;;;5076593;28;19915;-71
2022/12/05 11:44:13;;;;;;;;;;;4.40;99.90;;;;;;5053831;28;20378;-71
2022/12/05 11:46:58;;;;;;;;;;;4.40;99.90;;;;;;5076567;28;20391;-71
2022/12/05 11:49:41;;;;;;;;;;;4.40;99.90;;;;;;5076507;28;19909;-72
2022/12/05 11:52:07;;;;;;;;;;;4.40;99.90;;;;;;5076270;28;20353;-71
2022/12/05 11:54:32;;;;;;;;;;;4.40;99.90;;;;;;5076343;28;19915;-71
2022/12/05 11:57:02;;;;;;;;;;;4.50;99.90;;;;;;5076313;28;19919;-71
2022/12/05 11:59:27;;;;;;;;;;;4.60;99.90;;;;;;5076313;28;19925;-71
2022/12/05 12:02:11;;;;;;;;;;;4.60;99.90;;;;;;5076171;28;19916;-71
2022/12/05 12:04:37;;;;;;;;;;;4.70;99.90;;;;;;5076445;28;19908;-71
2022/12/05 12:07:21;;;;;;;;;;;4.70;99.90;;;;;;5075771;28;19991;-71
2022/12/05 12:09:57;;;;;;;;;;;4.70;99.90;;;;;;5073634;28;20273;-72
2022/12/05 12:12:31;;;;;;;;;;;4.70;99.90;;;;;;5075985;28;19908;-70
2022/12/05 12:14:57;;;;;;;;;;;4.70;99.90;;;;;;5056817;28;19908;-72
2022/12/05 12:17:30;;;;;;;;;;;4.80;99.90;;;;;;5057670;28;20399;-71
2022/12/05 12:20:14;;;;;;;;;;;4.80;99.90;;;;;;5075747;28;19908;-71
2022/12/05 12:22:59;;;;;;;;;;;4.80;99.90;;;;;;5075596;28;20437;-71
2022/12/05 12:25:24;;;;;;;;;;;4.70;99.90;;;;;;5055428;28;19908;-72
2022/12/05 12:28:10;;;;;;;;;;;4.70;99.90;;;;;;5075468;28;20011;-72
2022/12/05 12:30:51;;;;;;;;;;;4.70;99.90;;;;;;5073536;28;19915;-72
2022/12/05 12:33:31;;;;;;;;;;;4.70;99.90;;;;;;5074877;28;20435;-72
2022/12/05 12:36:13;;;;;;;;;;;4.70;99.90;;;;;;5074933;28;19909;-72
2022/12/05 12:38:39;;;;;;;;;;;4.70;99.90;;;;;;5074978;28;20017;-72
2022/12/05 12:41:16;;;;;;;;;;;4.70;99.90;;;;;;5075327;28;19967;-72
2022/12/05 12:43:48;;;;;;;;;;;4.70;99.90;;;;;;5075278;28;20325;-72
2022/12/05 12:46:13;;;;;;;;;;;4.70;99.90;;;;;;5075294;28;19908;-72
2022/12/05 12:48:39;;;;;;;;;;;4.70;99.90;;;;;;5075197;28;19915;-72
2022/12/05 12:51:09;;;;;;;;;;;4.70;99.90;;;;;;5057098;28;19909;-72
2022/12/05 12:53:48;;;;;;;;;;;4.70;99.90;;;;;;5075503;28;20385;-72
2022/12/05 12:56:25;;;;;;;;;;;4.70;99.90;;;;;;5075378;28;20359;-72
2022/12/05 12:59:12;;;;;;;;;;;4.80;99.90;;;;;;5074916;28;20321;-71
2022/12/05 13:01:52;;;;;;;;;;;4.80;99.90;;;;;;5075053;28;19912;-71
2022/12/05 13:04:23;;;;;;;;;;;4.80;99.90;;;;;;5056926;28;20100;-71
2022/12/05 13:06:56;;;;;;;;;;;4.90;99.90;;;;;;5074884;28;19991;-72
2022/12/05 13:09:31;;;;;;;;;;;4.80;99.90;;;;;;5056964;28;19909;-72
2022/12/05 13:11:59;;;;;;;;;;;4.80;99.90;;;;;;5074816;28;20296;-72
2022/12/05 13:14:26;;;;;;;;;;;4.80;99.90;;;;;;5075075;28;19912;-69
2022/12/05 13:16:53;;;;;;;;;;;4.80;99.90;;;;;;5074657;28;19995;-69
2022/12/05 13:19:27;;;;;;;;;;;4.70;99.90;;;;;;5074876;28;20364;-69
2022/12/05 13:24:28;;;;;;;;;;;4.70;99.90;;;;;;5267539;22;19925;-69
2022/12/05 13:26:57;;;;;;;;;;;4.60;99.90;;;;;;5053387;28;19909;-69
2022/12/05 13:29:28;;;;;;;;;;;4.60;99.90;;;;;;5054807;28;19909;-68
2022/12/05 13:31:54;;;;;;;;;;;4.60;99.90;;;;;;5054777;28;19915;-69
2022/12/05 13:34:28;;;;;;;;;;;4.60;99.90;;;;;;5054432;28;19913;-68
2022/12/05 13:42:26;;;;;;;;;;;4.60;99.90;;;;;;5054819;28;19979;-68
2022/12/05 13:44:55;;;;;;;;;;;4.70;99.90;;;;;;5055342;28;20287;-69
2022/12/05 13:47:39;;;;;;;;;;;4.70;99.90;;;;;;5053179;28;20323;-68
2022/12/05 13:50:13;;;;;;;;;;;4.70;99.90;;;;;;5054123;28;19909;-69
2022/12/05 13:52:48;;;;;;;;;;;4.70;99.90;;;;;;5053796;28;19954;-69
2022/12/05 13:55:16;;;;;;;;;;;4.60;99.90;;;;;;5054089;28;19915;-68
2022/12/05 13:57:43;;;;;;;;;;;4.60;99.90;;;;;;5054153;28;19913;-69
2022/12/05 14:00:09;;;;;;;;;;;4.50;99.90;;;;;;5053933;28;19909;-69
2022/12/05 14:02:38;;;;;;;;;;;4.50;99.90;;;;;;5052514;28;19916;-69
2022/12/05 14:05:24;;;;;;;;;;;4.50;99.90;;;;;;5053908;28;19995;-69
2022/12/05 14:07:51;;;;;;;;;;;4.50;99.90;;;;;;5053510;28;19916;-69
2022/12/05 14:10:21;;;;;;;;;;;4.50;99.90;;;;;;5054079;28;20000;-69
2022/12/05 14:12:53;;;;;;;;;;;4.50;99.90;;;;;;5053741;28;19909;-69
2022/12/05 14:15:24;;;;;;;;;;;4.40;99.90;;;;;;5053572;28;19999;-69
2022/12/05 14:17:55;;;;;;;;;;;4.40;99.90;;;;;;5053465;28;19920;-69
2022/12/05 14:20:35;;;;;;;;;;;4.40;99.90;;;;;;5053986;28;19925;-69
2022/12/05 14:23:15;;;;;;;;;;;4.40;99.90;;;;;;5053266;28;20015;-69
2022/12/05 14:25:49;;;;;;;;;;;4.40;99.90;;;;;;5052321;28;20329;-69
2022/12/05 14:28:33;;;;;;;;;;;4.40;99.90;;;;;;5053627;28;19935;-69
2022/12/05 14:31:17;;;;;;;;;;;4.40;99.90;;;;;;5053036;28;19915;-69
2022/12/05 14:33:42;;;;;;;;;;;4.40;99.90;;;;;;5053513;28;19963;-68
2022/12/05 14:36:14;;;;;;;;;;;4.40;99.90;;;;;;5053756;28;19917;-68
2022/12/05 14:38:40;;;;;;;;;;;4.30;99.90;;;;;;5051991;28;19944;-68
2022/12/05 14:41:27;;;;;;;;;;;4.30;99.90;;;;;;5052217;28;20336;-68
2022/12/05 14:43:54;;;;;;;;;;;4.20;99.90;;;;;;5053745;28;19909;-69
2022/12/05 14:46:24;;;;;;;;;;;4.30;99.90;;;;;;5053466;28;19909;-70
2022/12/05 14:48:51;;;;;;;;;;;4.30;99.90;;;;;;5053755;28;19908;-69
2022/12/05 14:51:28;;;;;;;;;;;4.20;99.90;;;;;;5053373;28;20289;-68
2022/12/05 14:53:55;;;;;;;;;;;4.20;99.90;;;;;;5053378;28;20280;-69
2022/12/05 14:56:21;;;;;;;;;;;4.20;99.90;;;;;;5053296;28;19912;-69